createdAt,value
2023-12-10T00:01:01.428Z,89
2023-12-10T00:03:01.139Z,89
2023-12-10T00:04:58.173Z,89
2023-12-10T00:07:01.274Z,89
2023-12-10T00:09:01.374Z,89
2023-12-10T00:11:04.329Z,89
2023-12-10T00:13:01.111Z,89
2023-12-10T00:15:04.261Z,89
2023-12-10T00:19:01.242Z,89
2023-12-10T00:21:01.089Z,89
2023-12-10T00:23:04.193Z,89
2023-12-10T00:25:04.370Z,89
2023-12-10T00:27:00.823Z,89
2023-12-10T00:29:01.027Z,89
2023-12-10T00:31:00.774Z,89
2023-12-10T00:36:59.386Z,89
2023-12-10T00:39:01.151Z,89
2023-12-10T00:41:07.067Z,89
2023-12-10T00:43:04.728Z,88
2023-12-10T00:45:00.806Z,88
2023-12-10T00:47:01.160Z,88
2023-12-10T00:48:58.985Z,88
2023-12-10T00:51:02.815Z,88
2023-12-10T00:53:01.025Z,88
2023-12-10T00:55:00.827Z,88
2023-12-10T00:57:01.166Z,88
2023-12-10T00:59:04.080Z,88
2023-12-10T01:01:01.166Z,87
2023-12-10T01:03:01.419Z,87
2023-12-10T01:05:01.103Z,88
2023-12-10T01:07:08.042Z,87
2023-12-10T01:09:04.365Z,88
2023-12-10T01:11:03.109Z,88
2023-12-10T01:12:59.674Z,88
2023-12-10T01:15:01.092Z,88
2023-12-10T01:17:01.534Z,88
2023-12-10T01:19:01.119Z,88
2023-12-10T01:21:01.217Z,88
2023-12-10T01:22:59.441Z,88
2023-12-10T01:25:01.529Z,87
2023-12-10T01:27:01.055Z,88
2023-12-10T01:29:03.264Z,88
2023-12-10T01:31:01.331Z,88
2023-12-10T01:32:58.251Z,88
2023-12-10T01:35:02.054Z,88
2023-12-10T01:37:04.552Z,88
2023-12-10T01:39:04.993Z,88
2023-12-10T01:41:01.038Z,88
2023-12-10T01:42:58.326Z,88
2023-12-10T01:45:01.155Z,88
2023-12-10T01:47:04.467Z,88
2023-12-10T01:49:00.838Z,88
2023-12-10T01:51:00.993Z,87
2023-12-10T01:52:58.834Z,87
2023-12-10T01:55:00.764Z,88
2023-12-10T01:57:05.850Z,88
2023-12-10T01:58:58.896Z,88
2023-12-10T02:01:01.101Z,87
2023-12-10T02:03:01.135Z,87
2023-12-10T02:05:01.758Z,87
2023-12-10T02:07:00.740Z,87
2023-12-10T02:09:01.182Z,87
2023-12-10T02:11:01.014Z,87
2023-12-10T02:13:01.146Z,87
2023-12-10T02:15:01.172Z,87
2023-12-10T02:18:58.681Z,87
2023-12-10T02:20:58.669Z,88
2023-12-10T02:22:59.295Z,88
2023-12-10T02:25:00.809Z,88
2023-12-10T02:27:01.056Z,88
2023-12-10T02:29:04.278Z,87
2023-12-10T02:31:04.900Z,87
2023-12-10T02:33:02.189Z,87
2023-12-10T02:37:02.127Z,87
2023-12-10T02:39:02.737Z,87
2023-12-10T02:43:01.617Z,87
2023-12-10T02:44:59.984Z,87
2023-12-10T02:47:03.471Z,87
2023-12-10T02:49:01.673Z,87
2023-12-10T02:51:01.769Z,87
2023-12-10T02:53:02.662Z,87
2023-12-10T02:55:01.392Z,87
2023-12-10T02:57:01.703Z,86
2023-12-10T02:59:02.294Z,86
2023-12-10T03:00:58.559Z,86
2023-12-10T03:03:01.803Z,86
2023-12-10T03:07:02.904Z,86
2023-12-10T03:09:01.742Z,86
2023-12-10T03:13:02.870Z,86
2023-12-10T03:14:58.152Z,86
2023-12-10T03:17:05.133Z,86
2023-12-10T03:19:03.145Z,86
2023-12-10T03:21:04.876Z,86
2023-12-10T03:23:01.200Z,86
2023-12-10T03:25:01.598Z,86
2023-12-10T03:27:03.238Z,86
2023-12-10T03:29:02.651Z,86
2023-12-10T03:31:04.730Z,86
2023-12-10T03:33:04.784Z,86
2023-12-10T03:35:02.421Z,86
2023-12-10T03:37:01.485Z,86
2023-12-10T03:39:03.108Z,86
2023-12-10T03:41:00.057Z,86
2023-12-10T03:43:05.216Z,86
2023-12-10T03:45:07.540Z,86
2023-12-10T03:47:04.931Z,86
2023-12-10T03:49:01.795Z,86
2023-12-10T03:51:01.588Z,86
2023-12-10T03:52:59.886Z,86
2023-12-10T03:55:01.642Z,86
2023-12-10T03:57:01.013Z,86
2023-12-10T03:59:03.759Z,86
2023-12-10T04:01:01.148Z,87
2023-12-10T04:02:58.752Z,87
2023-12-10T04:05:01.274Z,86
2023-12-10T04:07:04.648Z,87
2023-12-10T04:09:07.250Z,87
2023-12-10T04:11:04.860Z,86
2023-12-10T04:13:05.034Z,86
2023-12-10T04:15:01.067Z,86
2023-12-10T04:17:01.126Z,87
2023-12-10T04:19:01.153Z,87
2023-12-10T04:21:01.055Z,87
2023-12-10T04:23:01.232Z,88
2023-12-10T04:27:01.362Z,88
2023-12-10T04:29:01.481Z,88
2023-12-10T04:31:01.294Z,87
2023-12-10T04:33:01.037Z,87
2023-12-10T04:35:01.158Z,87
2023-12-10T04:37:01.073Z,87
2023-12-10T04:39:00.809Z,86
2023-12-10T04:41:01.586Z,87
2023-12-10T04:43:01.109Z,87
2023-12-10T04:45:01.663Z,87
2023-12-10T04:47:01.001Z,87
2023-12-10T04:49:04.552Z,86
2023-12-10T04:51:01.170Z,86
2023-12-10T04:52:59.825Z,86
2023-12-10T04:55:04.754Z,86
2023-12-10T04:56:58.669Z,86
2023-12-10T04:59:01.221Z,86
2023-12-10T05:01:01.094Z,86
2023-12-10T05:03:01.670Z,86
2023-12-10T05:05:01.448Z,86
2023-12-10T05:07:01.525Z,86
2023-12-10T05:10:59.407Z,86
2023-12-10T05:13:01.362Z,87
2023-12-10T05:15:01.094Z,87
2023-12-10T05:17:05.074Z,87
2023-12-10T05:19:02.722Z,87
2023-12-10T05:21:01.188Z,87
2023-12-10T05:23:01.181Z,87
2023-12-10T05:25:01.083Z,87
2023-12-10T05:26:58.295Z,87
2023-12-10T05:29:04.302Z,87
2023-12-10T05:31:02.902Z,87
2023-12-10T05:33:05.201Z,87
2023-12-10T05:35:01.142Z,87
2023-12-10T05:37:01.060Z,87
2023-12-10T05:39:02.515Z,87
2023-12-10T05:41:01.086Z,87
2023-12-10T05:43:02.602Z,87
2023-12-10T05:45:00.902Z,86
2023-12-10T05:47:02.859Z,86
2023-12-10T05:49:02.373Z,87
2023-12-10T05:51:01.546Z,87
2023-12-10T05:55:01.491Z,87
2023-12-10T05:57:01.860Z,86
2023-12-10T05:59:04.917Z,86
2023-12-10T06:01:01.075Z,86
2023-12-10T06:03:04.319Z,86
2023-12-10T06:05:01.101Z,86
2023-12-10T06:07:00.871Z,86
2023-12-10T06:09:01.856Z,86
2023-12-10T06:11:07.345Z,86
2023-12-10T06:13:01.546Z,86
2023-12-10T06:15:01.083Z,86
2023-12-10T06:19:04.396Z,86
2023-12-10T06:21:04.331Z,85
2023-12-10T06:23:00.930Z,86
2023-12-10T06:25:01.142Z,86
2023-12-10T06:27:01.148Z,86
2023-12-10T06:31:01.054Z,86
2023-12-10T06:33:02.477Z,85
2023-12-10T06:35:01.319Z,85
2023-12-10T06:37:01.280Z,85
2023-12-10T06:39:01.996Z,85
2023-12-10T06:41:01.785Z,85
2023-12-10T06:43:04.199Z,85
2023-12-10T06:45:01.095Z,85
2023-12-10T06:47:01.134Z,84
2023-12-10T06:49:04.458Z,85
2023-12-10T06:51:01.057Z,85
2023-12-10T06:53:00.596Z,84
2023-12-10T06:55:01.550Z,85
2023-12-10T06:57:02.419Z,84
2023-12-10T06:59:01.148Z,84
2023-12-10T07:01:02.721Z,84
2023-12-10T07:03:01.089Z,84
2023-12-10T07:05:01.148Z,84
2023-12-10T07:07:02.758Z,84
2023-12-10T07:09:02.996Z,84
2023-12-10T07:11:04.129Z,84
2023-12-10T07:13:03.099Z,84
2023-12-10T07:15:01.364Z,84
2023-12-10T07:17:00.954Z,84
2023-12-10T07:19:07.528Z,84
2023-12-10T07:21:00.986Z,84
2023-12-10T07:23:01.112Z,84
2023-12-10T07:25:01.576Z,84
2023-12-10T07:27:02.255Z,84
2023-12-10T07:29:05.874Z,84
2023-12-10T07:31:00.887Z,84
2023-12-10T07:33:04.107Z,84
2023-12-10T07:34:59.537Z,83
2023-12-10T07:37:01.082Z,84
2023-12-10T07:39:01.078Z,84
2023-12-10T07:41:02.966Z,83
2023-12-10T07:43:01.208Z,83
2023-12-10T07:45:01.135Z,83
2023-12-10T07:47:04.477Z,84
2023-12-10T07:48:59.665Z,83
2023-12-10T07:50:43.746Z,83
2023-12-10T07:52:43.789Z,83
2023-12-10T07:56:43.834Z,83
2023-12-10T07:58:43.784Z,83
2023-12-10T08:00:43.842Z,82
2023-12-10T08:02:43.907Z,83
2023-12-10T08:04:43.920Z,82
2023-12-10T08:06:43.892Z,83
2023-12-10T08:10:43.911Z,82
2023-12-10T08:12:43.833Z,82
2023-12-10T08:14:43.761Z,82
2023-12-10T08:16:43.827Z,82
2023-12-10T08:18:43.912Z,82
2023-12-10T08:20:43.751Z,82
2023-12-10T08:22:43.748Z,82
2023-12-10T08:24:43.783Z,82
2023-12-10T08:26:44.013Z,82
2023-12-10T08:28:43.822Z,81
2023-12-10T08:32:43.787Z,82
2023-12-10T08:36:43.876Z,81
2023-12-10T08:38:43.818Z,82
2023-12-10T08:40:43.829Z,80
2023-12-10T08:42:43.873Z,79
2023-12-10T08:44:43.822Z,79
2023-12-10T08:46:45.049Z,78
2023-12-10T08:48:43.990Z,78
2023-12-10T08:50:43.904Z,78
2023-12-10T08:52:43.832Z,78
2023-12-10T08:54:43.900Z,78
2023-12-10T08:56:43.945Z,79
2023-12-10T08:58:43.841Z,80
2023-12-10T09:00:44.084Z,80
2023-12-10T09:02:43.805Z,80
2023-12-10T09:04:43.875Z,80
2023-12-10T09:06:43.864Z,81
2023-12-10T09:10:43.826Z,81
2023-12-10T09:12:44.012Z,81
2023-12-10T09:14:43.825Z,81
2023-12-10T09:16:43.792Z,81
2023-12-10T09:20:43.795Z,77
2023-12-10T09:22:43.868Z,78
2023-12-10T09:24:43.808Z,77
2023-12-10T09:26:43.854Z,76
2023-12-10T09:28:43.857Z,77
2023-12-10T09:30:43.942Z,77
2023-12-10T09:32:43.888Z,77
2023-12-10T09:34:43.835Z,76
2023-12-10T09:36:43.855Z,76
2023-12-10T09:40:43.853Z,75
2023-12-10T09:42:43.887Z,76
2023-12-10T09:44:43.846Z,76
2023-12-10T09:46:43.862Z,76
2023-12-10T09:48:43.988Z,76
2023-12-10T09:50:43.819Z,77
2023-12-10T09:52:43.877Z,78
2023-12-10T09:54:43.915Z,78
2023-12-10T09:58:43.972Z,77
2023-12-10T10:02:43.823Z,75
2023-12-10T10:04:43.938Z,75
2023-12-10T10:06:43.818Z,75
2023-12-10T10:08:43.872Z,75
2023-12-10T10:10:43.832Z,74
2023-12-10T10:12:44.761Z,75
2023-12-10T10:14:43.947Z,76
2023-12-10T10:16:43.928Z,76
2023-12-10T10:18:44.040Z,75
2023-12-10T10:20:43.932Z,75
2023-12-10T10:22:43.895Z,75
2023-12-10T10:24:43.845Z,75
2023-12-10T10:26:43.795Z,75
2023-12-10T10:28:43.902Z,74
2023-12-10T10:30:43.917Z,75
2023-12-10T10:32:43.869Z,75
2023-12-10T10:34:43.987Z,75
2023-12-10T10:36:43.897Z,75
2023-12-10T10:38:43.848Z,75
2023-12-10T10:40:43.796Z,75
2023-12-10T10:44:44.018Z,75
2023-12-10T10:48:43.982Z,75
2023-12-10T10:50:43.810Z,75
2023-12-10T10:52:43.854Z,75
2023-12-10T10:54:43.878Z,75
2023-12-10T10:58:43.828Z,76
2023-12-10T11:00:43.892Z,78
2023-12-10T11:02:43.820Z,78
2023-12-10T11:04:43.897Z,79
2023-12-10T11:06:43.850Z,79
2023-12-10T11:08:43.844Z,78
2023-12-10T11:10:43.803Z,78
2023-12-10T11:12:43.906Z,78
2023-12-10T11:14:43.848Z,77
2023-12-10T11:16:43.843Z,76
2023-12-10T11:18:43.894Z,76
2023-12-10T11:20:43.891Z,77
2023-12-10T11:22:43.833Z,78
2023-12-10T11:26:43.819Z,78
2023-12-10T11:28:43.860Z,78
2023-12-10T11:30:43.936Z,79
2023-12-10T11:32:43.843Z,78
2023-12-10T11:34:43.937Z,78
2023-12-10T11:36:44.741Z,77
2023-12-10T11:42:44.011Z,77
2023-12-10T11:44:44.284Z,77
2023-12-10T11:46:47.750Z,77
2023-12-10T11:48:43.901Z,77
2023-12-10T11:50:43.872Z,76
2023-12-10T11:52:43.830Z,77
2023-12-10T11:54:43.895Z,77
2023-12-10T11:56:43.829Z,76
2023-12-10T11:58:43.838Z,77
2023-12-10T12:00:43.885Z,75
2023-12-10T12:02:43.892Z,75
2023-12-10T12:04:43.887Z,77
2023-12-10T12:06:43.958Z,76
2023-12-10T12:08:43.807Z,77
2023-12-10T12:10:43.817Z,75
2023-12-10T12:12:43.832Z,75
2023-12-10T12:14:43.906Z,77
2023-12-10T12:16:43.818Z,76
2023-12-10T12:18:43.884Z,75
2023-12-10T12:20:43.820Z,75
2023-12-10T12:24:43.854Z,75
2023-12-10T12:26:43.811Z,75
2023-12-10T12:30:43.877Z,75
2023-12-10T12:32:43.925Z,75
2023-12-10T12:34:43.893Z,75
2023-12-10T12:36:43.841Z,75
2023-12-10T12:38:43.874Z,75
2023-12-10T12:40:43.835Z,75
2023-12-10T12:42:43.876Z,75
2023-12-10T12:44:43.823Z,76
2023-12-10T12:46:43.814Z,75
2023-12-10T12:48:43.873Z,75
2023-12-10T12:50:43.811Z,75
2023-12-10T12:52:43.937Z,75
2023-12-10T12:54:43.825Z,75
2023-12-10T12:56:43.824Z,76
2023-12-10T12:58:43.797Z,75
2023-12-10T13:00:43.867Z,76
2023-12-10T13:02:43.830Z,76
2023-12-10T13:04:43.928Z,75
2023-12-10T13:06:43.858Z,76
2023-12-10T13:08:43.800Z,76
2023-12-10T13:10:43.792Z,76
2023-12-10T13:12:43.884Z,76
2023-12-10T13:14:44.024Z,76
2023-12-10T13:16:43.826Z,76
2023-12-10T13:18:43.849Z,76
2023-12-10T13:22:43.843Z,76
2023-12-10T13:24:43.885Z,76
2023-12-10T13:26:43.794Z,76
2023-12-10T13:28:43.824Z,76
2023-12-10T13:30:43.822Z,77
2023-12-10T13:32:43.876Z,77
2023-12-10T13:34:43.837Z,77
2023-12-10T13:36:43.946Z,76
2023-12-10T13:38:44.159Z,78
2023-12-10T13:40:43.813Z,78
2023-12-10T13:42:43.968Z,79
2023-12-10T13:46:43.844Z,79
2023-12-10T13:48:43.987Z,80
2023-12-10T13:50:43.982Z,80
2023-12-10T13:52:43.833Z,80
2023-12-10T13:54:43.853Z,81
2023-12-10T13:56:43.898Z,81
2023-12-10T14:00:43.896Z,81
2023-12-10T14:02:43.829Z,81
2023-12-10T14:04:43.973Z,81
2023-12-10T14:06:43.838Z,81
2023-12-10T14:08:43.960Z,80
2023-12-10T14:10:43.864Z,80
2023-12-10T14:12:43.890Z,80
2023-12-10T14:14:43.852Z,79
2023-12-10T14:16:43.936Z,80
2023-12-10T14:18:43.995Z,80
2023-12-10T14:20:43.827Z,80
2023-12-10T14:22:43.829Z,80
2023-12-10T14:24:43.873Z,80
2023-12-10T14:26:43.817Z,80
2023-12-10T14:28:43.921Z,80
2023-12-10T14:30:43.819Z,81
2023-12-10T14:32:43.851Z,81
2023-12-10T14:34:43.897Z,81
2023-12-10T14:36:43.920Z,81
2023-12-10T14:38:43.823Z,81
2023-12-10T14:40:43.833Z,81
2023-12-10T14:42:44.062Z,82
2023-12-10T14:44:43.990Z,82
2023-12-10T14:46:43.831Z,82
2023-12-10T14:48:44.021Z,82
2023-12-10T14:50:43.839Z,82
2023-12-10T14:52:43.843Z,82
2023-12-10T14:54:43.853Z,82
2023-12-10T14:56:43.894Z,82
2023-12-10T14:58:43.826Z,82
2023-12-10T15:00:44.061Z,82
2023-12-10T15:02:43.844Z,82
2023-12-10T15:04:43.912Z,82
2023-12-10T15:06:43.843Z,82
2023-12-10T15:08:43.942Z,83
2023-12-10T15:10:43.848Z,83
2023-12-10T15:12:43.871Z,83
2023-12-10T15:14:43.827Z,82
2023-12-10T15:16:43.855Z,83
2023-12-10T15:18:44.221Z,83
2023-12-10T15:20:43.975Z,83
2023-12-10T15:22:43.888Z,82
2023-12-10T15:24:43.862Z,83
2023-12-10T15:26:43.840Z,83
2023-12-10T15:28:43.869Z,83
2023-12-10T15:30:44.107Z,83
2023-12-10T15:32:43.854Z,83
2023-12-10T15:34:43.868Z,83
2023-12-10T15:36:43.883Z,83
2023-12-10T15:38:43.892Z,83
2023-12-10T15:40:43.932Z,83
2023-12-10T15:42:43.940Z,83
2023-12-10T15:44:43.844Z,83
2023-12-10T15:46:43.918Z,82
2023-12-10T15:48:43.927Z,82
2023-12-10T15:50:43.853Z,82
2023-12-10T15:52:43.848Z,82
2023-12-10T15:54:43.938Z,82
2023-12-10T15:56:43.851Z,82
2023-12-10T15:58:44.024Z,82
2023-12-10T16:00:43.844Z,82
2023-12-10T16:02:43.832Z,82
2023-12-10T16:04:43.866Z,82
2023-12-10T16:08:43.840Z,82
2023-12-10T16:10:43.885Z,82
2023-12-10T16:12:43.894Z,81
2023-12-10T16:14:43.842Z,82
2023-12-10T16:16:43.845Z,82
2023-12-10T16:18:45.590Z,81
2023-12-10T16:20:43.821Z,81
2023-12-10T16:24:43.877Z,81
2023-12-10T16:26:43.863Z,81
2023-12-10T16:28:43.836Z,81
2023-12-10T16:30:43.926Z,80
2023-12-10T16:32:43.809Z,80
2023-12-10T16:34:43.985Z,80
2023-12-10T16:36:43.870Z,80
2023-12-10T16:38:43.915Z,80
2023-12-10T16:40:43.890Z,79
2023-12-10T16:42:43.881Z,79
2023-12-10T16:44:43.846Z,79
2023-12-10T16:46:43.898Z,79
2023-12-10T16:50:43.888Z,79
2023-12-10T16:52:43.890Z,79
2023-12-10T16:54:43.926Z,80
2023-12-10T16:56:43.917Z,79
2023-12-10T16:58:43.896Z,80
2023-12-10T17:00:43.935Z,80
2023-12-10T17:02:44.053Z,80
2023-12-10T17:04:44.050Z,80
2023-12-10T17:06:43.900Z,79
2023-12-10T17:08:43.890Z,79
2023-12-10T17:10:44.011Z,79
2023-12-10T17:12:43.911Z,79
2023-12-10T17:14:43.870Z,80
2023-12-10T17:16:43.891Z,79
2023-12-10T17:18:44.009Z,80
2023-12-10T17:20:43.875Z,80
2023-12-10T17:22:43.856Z,79
2023-12-10T17:26:43.895Z,79
2023-12-10T17:28:43.859Z,79
2023-12-10T17:30:44.158Z,79
2023-12-10T17:32:43.947Z,79
2023-12-10T17:34:43.977Z,79
2023-12-10T17:36:43.892Z,79
2023-12-10T17:38:43.855Z,79
2023-12-10T17:40:43.912Z,79
2023-12-10T17:42:43.921Z,79
2023-12-10T17:44:49.935Z,79
2023-12-10T17:46:43.824Z,79
2023-12-10T17:48:43.955Z,79
2023-12-10T17:50:43.885Z,79
2023-12-10T17:52:43.854Z,78
2023-12-10T17:54:43.909Z,78
2023-12-10T17:56:43.900Z,79
2023-12-10T17:58:43.880Z,79
2023-12-10T18:00:43.904Z,79
2023-12-10T18:02:43.931Z,79
2023-12-10T18:04:43.998Z,78
2023-12-10T18:08:43.970Z,78
2023-12-10T18:10:43.883Z,78
2023-12-10T18:12:43.899Z,77
2023-12-10T18:14:43.868Z,77
2023-12-10T18:16:43.964Z,78
2023-12-10T18:18:43.890Z,76
2023-12-10T18:20:43.953Z,77
2023-12-10T18:22:43.862Z,77
2023-12-10T18:26:43.991Z,77
2023-12-10T18:28:44.020Z,76
2023-12-10T18:30:43.889Z,76
2023-12-10T18:32:44.013Z,76
2023-12-10T18:34:44.081Z,77
2023-12-10T18:36:44.098Z,77
2023-12-10T18:38:43.957Z,77
2023-12-10T18:40:43.838Z,76
2023-12-10T18:42:43.870Z,76
2023-12-10T18:44:43.850Z,75
2023-12-10T18:46:43.845Z,75
2023-12-10T18:48:43.898Z,76
2023-12-10T18:50:43.851Z,76
2023-12-10T18:52:43.914Z,75
2023-12-10T18:54:43.840Z,75
2023-12-10T18:56:43.852Z,77
2023-12-10T18:58:43.843Z,76
2023-12-10T19:00:43.934Z,75
2023-12-10T19:02:43.987Z,75
2023-12-10T19:04:44.017Z,75
2023-12-10T19:06:43.890Z,75
2023-12-10T19:10:43.892Z,74
2023-12-10T19:12:43.947Z,75
2023-12-10T19:14:46.760Z,75
2023-12-10T19:16:43.900Z,75
2023-12-10T19:18:44.066Z,74
2023-12-10T19:20:43.895Z,74
2023-12-10T19:22:43.905Z,73
2023-12-10T19:24:43.997Z,73
2023-12-10T19:26:43.919Z,74
2023-12-10T19:28:43.839Z,73
2023-12-10T19:30:43.940Z,72
2023-12-10T19:32:44.939Z,72
2023-12-10T19:34:43.962Z,72
2023-12-10T19:36:43.838Z,71
2023-12-10T19:38:43.941Z,72
2023-12-10T19:40:43.867Z,72
2023-12-10T19:42:44.040Z,70
2023-12-10T19:44:43.861Z,71
2023-12-10T19:46:43.901Z,70
2023-12-10T19:48:43.926Z,70
2023-12-10T19:50:43.884Z,69
2023-12-10T19:52:43.886Z,68
2023-12-10T19:54:43.951Z,69
2023-12-10T19:56:43.914Z,69
2023-12-10T19:58:43.944Z,69
2023-12-10T20:00:43.949Z,69
2023-12-10T20:02:43.942Z,68
2023-12-10T20:04:43.921Z,68
2023-12-10T20:06:43.965Z,68
2023-12-10T20:08:43.938Z,68
2023-12-10T20:10:45.015Z,69
2023-12-10T20:12:44.110Z,69
2023-12-10T20:14:43.914Z,69
2023-12-10T20:16:43.995Z,69
2023-12-10T20:18:43.972Z,70
2023-12-10T20:22:43.887Z,69
2023-12-10T20:24:48.520Z,70
2023-12-10T20:26:43.920Z,69
2023-12-10T20:28:43.869Z,69
2023-12-10T20:30:43.880Z,68
2023-12-10T20:32:43.872Z,67
2023-12-10T20:34:43.906Z,67
2023-12-10T20:36:44.015Z,68
2023-12-10T20:38:43.837Z,67
2023-12-10T20:40:46.716Z,66
2023-12-10T20:42:43.895Z,66
2023-12-10T20:44:43.874Z,65
2023-12-10T20:46:43.883Z,63
2023-12-10T20:48:44.053Z,62
2023-12-10T20:50:43.924Z,62
2023-12-10T20:54:43.923Z,62
2023-12-10T20:56:43.986Z,64
2023-12-10T20:58:43.881Z,66
2023-12-10T21:00:43.877Z,67
2023-12-10T21:02:43.886Z,67
2023-12-10T21:04:43.850Z,66
2023-12-10T21:06:44.016Z,66
2023-12-10T21:08:43.982Z,66
2023-12-10T21:10:43.876Z,67
2023-12-10T21:12:43.986Z,65
2023-12-10T21:14:43.906Z,64
2023-12-10T21:16:43.863Z,63
2023-12-10T21:18:43.983Z,63
2023-12-10T21:20:43.932Z,64
2023-12-10T21:22:43.866Z,64
2023-12-10T21:24:44.040Z,63
2023-12-10T21:26:43.856Z,64
2023-12-10T21:28:43.863Z,68
2023-12-10T21:32:43.881Z,70
2023-12-10T21:34:43.933Z,69
2023-12-10T21:36:43.950Z,70
2023-12-10T21:38:43.878Z,70
2023-12-10T21:40:43.869Z,71
2023-12-10T21:42:43.964Z,71
2023-12-10T21:44:43.907Z,71
2023-12-10T21:46:44.724Z,72
2023-12-10T21:48:44.018Z,71
2023-12-10T21:50:43.873Z,71
2023-12-10T21:52:43.854Z,71
2023-12-10T21:54:43.857Z,70
2023-12-10T21:58:43.995Z,70
2023-12-10T22:00:43.979Z,70
2023-12-10T22:02:43.852Z,70
2023-12-10T22:04:44.064Z,69
2023-12-10T22:06:43.916Z,68
2023-12-10T22:08:43.833Z,68
2023-12-10T22:10:43.847Z,67
2023-12-10T22:12:43.905Z,67
2023-12-10T22:14:43.946Z,69
2023-12-10T22:16:43.978Z,69
2023-12-10T22:18:44.910Z,69
2023-12-10T22:22:44.950Z,71
2023-12-10T22:24:43.911Z,72
2023-12-10T22:26:43.955Z,73
2023-12-10T22:28:43.841Z,73
2023-12-10T22:30:43.933Z,74
2023-12-10T22:32:43.911Z,71
2023-12-10T22:34:43.948Z,72
2023-12-10T22:36:43.951Z,73
2023-12-10T22:38:43.840Z,74
2023-12-10T22:40:43.906Z,74
2023-12-10T22:42:44.977Z,74
2023-12-10T22:44:43.926Z,74
2023-12-10T22:46:43.873Z,73
2023-12-10T22:48:44.011Z,73
2023-12-10T22:50:43.904Z,71
2023-12-10T22:52:46.130Z,72
2023-12-10T22:54:48.010Z,70
2023-12-10T22:56:43.948Z,68
2023-12-10T22:58:46.587Z,68
2023-12-10T23:00:47.651Z,70
2023-12-10T23:02:48.407Z,70
2023-12-10T23:04:49.043Z,69
2023-12-10T23:06:49.352Z,70
2023-12-10T23:08:46.239Z,69
2023-12-10T23:10:47.885Z,69
2023-12-10T23:14:45.341Z,70
2023-12-10T23:16:48.865Z,71
2023-12-10T23:18:44.090Z,73
2023-12-10T23:22:45.916Z,74
2023-12-10T23:24:45.898Z,76
2023-12-10T23:32:49.277Z,79
2023-12-10T23:34:44.464Z,81
2023-12-10T23:36:50.434Z,81
2023-12-10T23:40:48.256Z,83
2023-12-10T23:42:49.099Z,84
2023-12-10T23:44:48.842Z,84
2023-12-10T23:46:48.465Z,84
2023-12-10T23:48:49.682Z,85
2023-12-10T23:50:49.076Z,85
2023-12-10T23:52:46.610Z,84
2023-12-10T23:54:43.890Z,84
2023-12-10T23:56:46.247Z,84
2023-12-10T23:58:45.862Z,84
